Tiverton, Rhode Island
Current Conditions -  °F | °C
As of 10:36 AM on Monday 22 Dec 2014 (Local Time) from KUUU Reporting Station
Broken Clouds Broken Clouds  
Wind Chill: 33°   Ceiling: 1900
Heat Index: 40°   Visibility: 10mi
Dew Point: 36°   Wind: 10mph
Humidity: 86%   Direction: 30°NNE
Pressure: 30.35"   Gusts: NA
Location:  41.62°N, 71.21°W
Report Text: KUUU 221536Z AUTO 03009KT 10SM SCT008 BKN019 04/02 A3035 RMK AO2 T00440022
Loading
Personal Weather Stations






























Interactive Weather Map New forecast layout! Learn more

10-Day Weather Forecast

Advertisements
Track Severe Weather on mobile